Aviation Digital Data Service (ADDS)

Output produced by METARs form (0945 UTC 28 September 2021)
found at http://www.aviationweather.gov/metar/data/
 
VTUK 280900Z 32004KT 280V340 9999 VCSH FEW018CB SCT030 BKN100 31/25 Q1008 TEMPO FM0915 TL1015 4000 TSRA
VTUK 280800Z 25004KT 220V280 9999 BKN030 30/25 Q1008 NOSIG
VTUK 280700Z 22005KT 180V260 9999 BKN030 31/25 Q1009 NOSIG
VTUK 280600Z VRB04KT 9999 BKN025 31/25 Q1010 NOSIG
VTUK 280500Z VRB03KT 9999 BKN025 32/25 Q1011 NOSIG
VTUK 280400Z 35004KT 280V070 9999 BKN025 31/24 Q1012 NOSIG
VTUK 280300Z VRB02KT 9999 SCT030 29/24 Q1013 NOSIG
VTUK 280200Z 05004KT 010V090 9999 FEW030 29/25 Q1013 NOSIG
VTUK 280100Z 02004KT 350V060 9999 FEW030 SCT100 27/24 Q1012 NOSIG
VTUK 280000Z 05004KT 020V080 9999 -RA FEW030 BKN100 25/24 Q1011 NOSIG
VTUK 272300Z 04002KT 9999 FEW010 BKN100 24/24 Q1011 NOSIG
VTUK 272200Z VRB01KT 9000 FEW010 BKN100 24/24 Q1010 NOSIG
VTUK 272100Z VRB02KT 9000 FEW030 BKN100 24/24 Q1010 NOSIG
VTUK 272000Z 32003KT 9000 FEW030 BKN100 24/24 Q1010 NOSIG
VTUK 271900Z 32003KT 9000 FEW030 BKN100 24/24 Q1010 NOSIG
VTUK 271800Z VRB02KT 9000 FEW030 24/24 Q1011 NOSIG
VTUK 271700Z 33003KT 9000 FEW030 BKN100 24/24 Q1011 NOSIG
VTUK 271600Z 29003KT 9000 -RA FEW030 BKN100 25/24 Q1012 NOSIG
VTUK 271500Z 33004KT 9000 -RA FEW030 BKN100 25/24 Q1012 NOSIG
VTUK 271400Z VRB02KT 9000 FEW030 BKN100 26/24 Q1012 NOSIG
VTUK 271300Z VRB02KT 9000 FEW030 BKN100 26/23 Q1011 TEMPO FM1310 4500 TSRA
VTUK 271200Z 22005KT 180V240 9999 FEW030 BKN100 26/23 Q1010 TEMPO FM1220 4000 TSRA
VTUK 271100Z 23004KT 9999 FEW030 BKN100 27/23 Q1009 NOSIG
VTUK 271000Z 22003KT 9999 FEW030 BKN100 28/24 Q1008 NOSIG
TAF VTUK 280500Z 2806/2906 06005KT 9000 SCT025 BKN100 
     TEMPO 2807/2814 VRB15KT 4000 TSRA FEW015CB BKN020 BKN080 
     BECMG 2815/2817 32005KT